Time;durP1;ratioP1;P1;durP2;ratioP2;P2;SDS_P1;SDS_P2;PMS_P1;PMS_P2;Temp;Humidity;BMP_temperature;BMP_pressure;BME280_temperature;BME280_humidity;BME280_pressure;Samples;Min_cycle;Max_cycle;Signal;HPM_P1;HPM_P2
2021/07/27 00:01:27;;;;;;;12.82;6.97;;;;;;;18.38;79.49;100923.66;5131571;27;20073;-65
2021/07/27 00:03:54;;;;;;;15.45;6.80;;;;;;;18.32;79.83;100923.63;5106357;27;20076;-66
2021/07/27 00:06:21;;;;;;;20.23;6.95;;;;;;;18.33;80.18;100925.28;5100499;28;20039;-66
2021/07/27 00:08:48;;;;;;;18.63;7.68;;;;;;;18.45;79.80;100917.50;5111614;28;20083;-66
2021/07/27 00:11:15;;;;;;;14.45;6.75;;;;;;;18.30;80.11;100926.53;5111109;28;20039;-66
2021/07/27 00:13:41;;;;;;;14.05;6.97;;;;;;;18.40;79.55;100921.59;5112303;28;20047;-66
2021/07/27 00:16:08;;;;;;;15.27;7.00;;;;;;;18.52;79.25;100923.69;5077620;28;20071;-66
2021/07/27 00:18:35;;;;;;;19.70;6.93;;;;;;;18.30;80.10;100931.06;5115503;28;20036;-66
2021/07/27 00:21:04;;;;;;;17.30;6.32;;;;;;;18.33;79.81;100936.03;5115411;27;20098;-66
2021/07/27 00:23:34;;;;;;;14.70;7.35;;;;;;;18.21;80.32;100933.09;5114460;28;20047;-66
2021/07/27 00:26:05;;;;;;;14.13;7.03;;;;;;;18.17;80.37;100931.81;5115253;28;20040;-66
2021/07/27 00:28:31;;;;;;;17.23;6.88;;;;;;;18.29;79.96;100932.91;5116439;28;20036;-66
2021/07/27 00:30:58;;;;;;;16.42;7.20;;;;;;;18.13;80.56;100930.56;5114472;28;20051;-66
2021/07/27 00:33:25;;;;;;;17.48;7.88;;;;;;;18.36;79.53;100939.16;5114865;28;20044;-66
2021/07/27 00:35:52;;;;;;;14.93;7.45;;;;;;;18.22;80.06;100929.38;5114145;28;20042;-66
2021/07/27 00:38:21;;;;;;;14.85;7.45;;;;;;;18.14;80.70;100933.06;5114087;28;20488;-66
2021/07/27 00:40:48;;;;;;;15.15;7.38;;;;;;;18.03;80.51;100931.78;5115914;28;20063;-66
2021/07/27 00:43:17;;;;;;;16.15;8.20;;;;;;;18.05;80.65;100934.25;5097660;28;20044;-65
2021/07/27 00:45:44;;;;;;;17.52;7.35;;;;;;;17.96;81.27;100930.91;5114238;28;20063;-66
2021/07/27 00:48:10;;;;;;;16.40;8.05;;;;;;;17.87;81.53;100937.47;5114067;28;20377;-66
2021/07/27 00:50:38;;;;;;;15.35;8.00;;;;;;;17.91;81.59;100936.03;5096012;28;20051;-66
2021/07/27 00:53:06;;;;;;;15.18;8.02;;;;;;;18.00;80.81;100942.06;5094786;28;20060;-66
2021/07/27 00:55:34;;;;;;;20.92;8.90;;;;;;;17.98;81.12;100942.25;5095206;28;20044;-66
2021/07/27 00:58:01;;;;;;;18.65;8.95;;;;;;;17.87;81.53;100947.38;5115476;27;20510;-66
2021/07/27 01:00:28;;;;;;;20.35;8.02;;;;;;;17.91;81.29;100940.59;5113941;28;20458;-65
2021/07/27 01:02:55;;;;;;;16.08;8.25;;;;;;;17.95;81.01;100942.66;5115054;28;20043;-65
2021/07/27 01:05:24;;;;;;;19.20;8.02;;;;;;;17.83;81.29;100936.19;5093713;28;20036;-66
2021/07/27 01:07:51;;;;;;;22.48;9.30;;;;;;;17.81;81.84;100941.72;5107389;27;20039;-66
2021/07/27 01:10:18;;;;;;;17.27;8.13;;;;;;;17.81;82.18;100951.66;5113256;28;20059;-66
2021/07/27 01:12:46;;;;;;;21.48;8.85;;;;;;;17.88;81.47;100952.53;5113195;28;20532;-65
2021/07/27 01:15:13;;;;;;;19.58;8.90;;;;;;;17.98;80.98;100946.81;5114349;28;20043;-65
2021/07/27 01:17:40;;;;;;;21.95;9.00;;;;;;;17.84;81.39;100944.03;5113490;28;20040;-66
2021/07/27 01:20:17;;;;;;;16.63;8.43;;;;;;;17.75;82.03;100947.03;5113452;28;20400;-66
2021/07/27 01:39:34;;;;;;;20.73;10.18;;;;;;;17.88;81.66;100943.66;5114103;28;20565;-66
2021/07/27 01:42:11;;;;;;;22.13;10.13;;;;;;;17.87;81.35;100937.47;5112790;28;20067;-65
2021/07/27 01:44:44;;;;;;;29.20;11.13;;;;;;;17.80;81.56;100936.56;5114117;28;20484;-66
2021/07/27 01:49:50;;;;;;;25.38;10.82;;;;;;;17.68;82.02;100938.94;5130402;27;20375;-66
2021/07/27 01:52:20;;;;;;;22.25;10.80;;;;;;;17.62;82.71;100940.56;5112743;28;20514;-64
2021/07/27 01:54:52;;;;;;;19.65;10.45;;;;;;;17.62;82.79;100937.06;5128873;28;20114;-64
2021/07/27 01:57:19;;;;;;;23.50;10.95;;;;;;;17.60;82.78;100931.88;5130529;28;20385;-65
2021/07/27 02:02:27;;;;;;;22.45;10.65;;;;;;;17.52;83.04;100939.25;5110126;27;20387;-65
2021/07/27 02:04:54;;;;;;;20.15;11.25;;;;;;;17.50;83.24;100930.56;5071364;28;20040;-65
2021/07/27 02:07:21;;;;;;;20.73;10.90;;;;;;;17.45;83.54;100928.47;5106254;28;20051;-65
2021/07/27 02:09:50;;;;;;;19.02;10.73;;;;;;;17.44;83.59;100934.84;5088344;28;20090;-64
2021/07/27 02:12:20;;;;;;;27.50;11.82;;;;;;;17.46;83.48;100930.13;5088806;28;20123;-65
2021/07/27 02:15:18;;;;;;;22.52;12.40;;;;;;;17.47;83.16;100931.78;5071786;28;20075;-66
2021/07/27 02:17:35;;;;;;;24.17;11.68;;;;;;;17.47;83.54;100929.13;5089339;28;20040;-66
2021/07/27 02:20:05;;;;;;;22.42;11.57;;;;;;;17.65;82.38;100932.13;5088434;28;20045;-66
2021/07/27 02:22:33;;;;;;;23.25;11.95;;;;;;;17.78;81.87;100933.25;5088855;28;20113;-66
2021/07/27 02:25:00;;;;;;;24.00;11.85;;;;;;;17.68;81.92;100932.75;5093316;28;20378;-66
2021/07/27 02:27:27;;;;;;;23.48;11.80;;;;;;;17.89;81.60;100934.59;5109402;28;20044;-66
2021/07/27 02:29:55;;;;;;;31.02;12.95;;;;;;;17.81;81.49;100932.88;5109477;28;20044;-66
2021/07/27 02:32:21;;;;;;;27.92;14.65;;;;;;;17.85;81.31;100936.84;5109088;28;20684;-66
2021/07/27 02:34:48;;;;;;;31.13;14.57;;;;;;;17.75;81.86;100933.63;5109273;28;20036;-66
2021/07/27 02:37:15;;;;;;;27.90;15.43;;;;;;;17.79;81.53;100937.56;5109336;28;20044;-66
2021/07/27 02:39:42;;;;;;;33.40;16.45;;;;;;;17.75;81.76;100937.13;5108212;28;20036;-67
2021/07/27 02:42:09;;;;;;;31.65;16.45;;;;;;;17.95;80.75;100945.34;5107856;28;20118;-66
2021/07/27 02:44:35;;;;;;;32.30;16.08;;;;;;;17.78;81.36;100935.94;5107768;28;20123;-66
2021/07/27 02:47:03;;;;;;;34.15;17.20;;;;;;;17.77;81.12;100934.25;5108372;28;20039;-67
2021/07/27 02:49:29;;;;;;;32.63;16.73;;;;;;;17.63;82.05;100933.38;5107853;28;20139;-66
2021/07/27 02:51:57;;;;;;;33.60;16.73;;;;;;;17.56;82.43;100929.81;5107781;28;20032;-66
2021/07/27 02:54:23;;;;;;;35.28;17.50;;;;;;;17.60;82.20;100929.19;5109339;28;20092;-66
2021/07/27 02:56:50;;;;;;;35.35;17.83;;;;;;;17.56;82.06;100935.16;5109299;28;20039;-66
2021/07/27 02:59:17;;;;;;;38.17;17.27;;;;;;;17.49;82.70;100931.59;5107184;28;20040;-66
2021/07/27 03:01:45;;;;;;;34.33;17.42;;;;;;;17.46;83.01;100932.81;5106982;28;20050;-66
2021/07/27 03:04:12;;;;;;;35.75;17.02;;;;;;;17.46;83.17;100932.81;5108562;28;20151;-66
2021/07/27 03:06:39;;;;;;;35.03;16.95;;;;;;;17.45;83.35;100929.31;5100586;28;20481;-66
2021/07/27 03:10:16;;;;;;;31.33;16.92;;;;;;;17.47;83.07;100926.44;5090471;28;20042;-66
2021/07/27 03:11:53;;;;;;;34.58;17.27;;;;;;;17.61;82.15;100930.88;5085171;28;20068;-66
2021/07/27 03:14:20;;;;;;;35.30;18.95;;;;;;;17.55;82.00;100928.94;5076513;28;20044;-66
2021/07/27 03:16:47;;;;;;;34.33;18.73;;;;;;;17.58;82.10;100936.63;5093791;28;20044;-66
2021/07/27 03:19:17;;;;;;;32.78;18.00;;;;;;;17.51;82.46;100940.28;5094563;28;20036;-66
2021/07/27 03:21:45;;;;;;;31.45;18.45;;;;;;;17.45;82.52;100948.06;5093874;28;20060;-65
2021/07/27 03:24:12;;;;;;;32.53;19.10;;;;;;;17.39;82.64;100935.47;5094670;28;20044;-66
2021/07/27 03:26:38;;;;;;;36.20;19.38;;;;;;;17.33;82.82;100938.91;5090375;28;20072;-66
2021/07/27 03:29:06;;;;;;;39.05;21.48;;;;;;;17.38;82.88;100930.28;5083839;28;20047;-66
2021/07/27 03:31:33;;;;;;;36.88;20.10;;;;;;;17.32;83.25;100944.44;5074631;28;20082;-66
2021/07/27 03:34:00;;;;;;;39.78;20.15;;;;;;;17.38;82.92;100941.84;5092000;28;20048;-66
2021/07/27 03:36:27;;;;;;;37.22;20.60;;;;;;;17.35;83.63;100944.88;5060034;28;20476;-66
2021/07/27 03:38:55;;;;;;;45.83;22.08;;;;;;;17.36;83.55;100938.50;5094430;28;20040;-66
2021/07/27 03:41:23;;;;;;;40.38;23.40;;;;;;;17.52;82.36;100945.47;5093163;28;20044;-66
2021/07/27 03:43:50;;;;;;;45.15;24.02;;;;;;;17.46;82.45;100941.69;5094351;28;20075;-66
2021/07/27 03:46:17;;;;;;;44.92;24.25;;;;;;;17.43;82.68;100935.91;5074660;28;20067;-66
2021/07/27 03:48:43;;;;;;;47.53;25.83;;;;;;;17.38;83.11;100935.66;5093234;28;20416;-66
2021/07/27 03:51:12;;;;;;;49.65;25.55;;;;;;;17.39;83.17;100937.28;5092808;28;20036;-66
2021/07/27 03:53:39;;;;;;;43.38;24.77;;;;;;;17.38;83.09;100933.78;5093916;28;20048;-66
2021/07/27 03:56:10;;;;;;;43.97;25.08;;;;;;;17.43;82.49;100939.41;5094472;28;20090;-66
2021/07/27 03:58:37;;;;;;;45.05;24.13;;;;;;;17.61;81.58;100933.56;5094360;28;20040;-66
2021/07/27 04:01:05;;;;;;;40.25;24.20;;;;;;;17.52;81.88;100937.41;5092543;28;20048;-66
2021/07/27 04:03:33;;;;;;;48.30;24.50;;;;;;;17.52;81.83;100948.13;5093718;28;20040;-66
2021/07/27 04:06:00;;;;;;;42.72;23.27;;;;;;;17.48;82.48;100948.72;5079986;28;20059;-66
2021/07/27 04:08:26;;;;;;;41.40;23.15;;;;;;;17.47;82.10;100947.88;5077471;28;20113;-66
2021/07/27 04:10:59;;;;;;;45.90;22.55;;;;;;;17.48;82.24;100952.22;5094170;28;20155;-66
2021/07/27 04:13:30;;;;;;;38.40;20.83;;;;;;;17.61;81.03;100948.81;5093805;28;20042;-66
2021/07/27 04:15:59;;;;;;;35.45;21.10;;;;;;;17.59;81.17;100948.16;5092892;28;20134;-66
2021/07/27 04:18:26;;;;;;;39.40;20.75;;;;;;;17.52;81.10;100955.34;5092188;28;20130;-66
2021/07/27 04:20:59;;;;;;;34.58;20.48;;;;;;;17.43;81.88;100942.09;5071979;28;20401;-66
2021/07/27 04:23:27;;;;;;;34.35;20.33;;;;;;;17.53;81.26;100946.28;5055995;28;20036;-66
2021/07/27 04:25:53;;;;;;;38.47;20.48;;;;;;;17.42;81.63;100942.28;5075867;28;20133;-66
2021/07/27 04:28:20;;;;;;;42.35;21.08;;;;;;;17.36;82.42;100951.09;5094105;28;20075;-66
2021/07/27 04:30:47;;;;;;;39.28;21.05;;;;;;;17.39;81.81;100948.00;5093875;28;20047;-66
2021/07/27 04:33:16;;;;;;;46.35;21.55;;;;;;;17.44;81.88;100959.84;5071115;28;21135;-66
2021/07/27 04:35:43;;;;;;;43.75;20.65;;;;;;;17.49;81.73;100953.06;5092179;28;20048;-66
2021/07/27 04:38:10;;;;;;;37.22;21.05;;;;;;;17.42;82.07;100944.94;5092232;28;20048;-66
2021/07/27 04:40:36;;;;;;;37.53;21.55;;;;;;;17.44;82.55;100954.47;5093211;28;20119;-67
2021/07/27 04:43:03;;;;;;;40.78;21.75;;;;;;;17.53;82.16;100954.31;5092355;28;20448;-66
2021/07/27 04:45:31;;;;;;;40.28;22.23;;;;;;;17.61;81.96;100957.69;5091735;28;20044;-66
2021/07/27 04:47:58;;;;;;;40.97;20.27;;;;;;;17.70;81.68;100960.22;5093415;28;20507;-66
2021/07/27 04:50:25;;;;;;;37.17;19.88;;;;;;;17.79;81.09;100957.19;5091668;28;20071;-66
2021/07/27 04:52:58;;;;;;;42.30;19.83;;;;;;;17.88;80.32;100957.88;5093191;28;20062;-66
2021/07/27 04:55:25;;;;;;;40.42;19.80;;;;;;;17.92;80.60;100953.81;5093243;28;20113;-66
2021/07/27 04:57:52;;;;;;;34.80;18.58;;;;;;;17.90;80.40;100942.44;5093028;28;20050;-66
2021/07/27 05:00:26;;;;;;;33.35;19.10;;;;;;;17.91;80.58;100946.75;5093267;28;20101;-66
2021/07/27 05:02:53;;;;;;;36.03;18.50;;;;;;;17.94;79.78;100949.06;5094975;28;20047;-66
2021/07/27 05:05:20;;;;;;;39.80;19.25;;;;;;;18.01;79.98;100951.78;5075071;28;20077;-66
2021/07/27 05:07:47;;;;;;;36.38;18.17;;;;;;;17.99;80.02;100949.31;5092875;28;20071;-66
2021/07/27 05:10:14;;;;;;;33.17;18.15;;;;;;;17.95;80.61;100952.56;5094395;28;20039;-66
2021/07/27 05:12:40;;;;;;;36.80;18.00;;;;;;;17.99;80.09;100940.41;5112757;28;20454;-66
2021/07/27 05:15:08;;;;;;;36.88;17.95;;;;;;;17.96;80.74;100946.19;5111363;28;20189;-66
2021/07/27 05:17:35;;;;;;;35.33;19.13;;;;;;;17.96;80.55;100936.28;5113079;28;20097;-66
2021/07/27 05:20:03;;;;;;;38.38;19.27;;;;;;;17.97;80.47;100953.19;5112655;28;20050;-66
2021/07/27 05:22:31;;;;;;;36.33;18.20;;;;;;;18.12;79.58;100945.88;5113144;28;20039;-66
2021/07/27 05:24:58;;;;;;;32.22;17.58;;;;;;;18.05;80.41;100957.59;5112789;28;20036;-66
2021/07/27 05:27:27;;;;;;;34.25;17.38;;;;;;;18.09;80.63;100954.31;5112825;28;20056;-66
2021/07/27 05:29:55;;;;;;;33.78;17.80;;;;;;;18.14;80.02;100945.66;5075898;28;20090;-66
2021/07/27 05:32:24;;;;;;;38.80;17.02;;;;;;;18.14;80.12;100943.81;5092750;28;20090;-66
2021/07/27 05:34:51;;;;;;;28.88;16.77;;;;;;;18.21;79.66;100946.53;5074061;28;20055;-66
2021/07/27 05:37:18;;;;;;;33.22;15.75;;;;;;;18.27;79.83;100945.72;5092775;28;20051;-66
2021/07/27 05:39:46;;;;;;;33.90;16.33;;;;;;;18.33;79.59;100944.09;5071666;28;20044;-66
2021/07/27 05:42:13;;;;;;;26.60;14.93;;;;;;;18.30;79.46;100939.97;5072297;28;20059;-66
2021/07/27 05:44:39;;;;;;;25.77;14.52;;;;;;;18.41;79.17;100947.44;5074441;28;20439;-66
2021/07/27 05:47:06;;;;;;;26.23;14.80;;;;;;;18.37;79.15;100945.34;5104042;28;20440;-66
2021/07/27 05:49:35;;;;;;;25.83;13.77;;;;;;;18.39;78.88;100954.03;5094303;28;20399;-66
2021/07/27 05:52:02;;;;;;;29.45;15.35;;;;;;;18.37;78.83;100950.72;5112636;28;20047;-66
2021/07/27 05:54:29;;;;;;;30.48;13.48;;;;;;;18.34;79.03;100954.63;5112722;28;20051;-66
2021/07/27 05:56:56;;;;;;;28.77;14.13;;;;;;;18.30;78.42;100945.34;5094015;28;20126;-66
2021/07/27 05:59:23;;;;;;;26.48;13.32;;;;;;;18.39;78.45;100943.28;5094198;28;20048;-66
2021/07/27 06:01:50;;;;;;;25.00;12.88;;;;;;;18.38;78.49;100949.69;5112265;28;20078;-66
2021/07/27 06:04:18;;;;;;;25.27;12.75;;;;;;;18.33;78.01;100950.28;5099806;28;20046;-66
2021/07/27 06:06:45;;;;;;;22.55;12.57;;;;;;;18.40;77.93;100953.00;5090579;28;20142;-66
2021/07/27 06:09:12;;;;;;;22.48;12.63;;;;;;;18.42;78.64;100953.63;5102495;28;20142;-66
2021/07/27 06:11:39;;;;;;;27.42;11.63;;;;;;;18.49;77.50;100940.22;5112136;28;20070;-66
2021/07/27 06:14:07;;;;;;;23.25;11.05;;;;;;;18.52;77.17;100939.81;5111482;28;20040;-66
2021/07/27 06:16:37;;;;;;;22.25;11.20;;;;;;;18.58;77.16;100950.59;5112387;28;20377;-66
2021/07/27 06:19:05;;;;;;;25.90;11.07;;;;;;;18.63;77.16;100944.63;5112461;28;20067;-66
2021/07/27 06:21:32;;;;;;;24.05;12.00;;;;;;;18.70;76.10;100937.41;5077406;28;20131;-66
2021/07/27 06:23:59;;;;;;;21.10;11.63;;;;;;;18.64;76.27;100940.06;5112409;28;20039;-65
2021/07/27 06:26:26;;;;;;;24.88;11.63;;;;;;;18.65;76.65;100929.13;5093627;28;20056;-65
2021/07/27 06:28:52;;;;;;;25.30;12.77;;;;;;;18.72;76.76;100931.81;5094436;28;20043;-65
2021/07/27 06:31:19;;;;;;;22.17;11.65;;;;;;;18.76;75.60;100925.00;5093911;28;20047;-65
2021/07/27 06:33:46;;;;;;;23.05;11.95;;;;;;;18.88;74.89;100920.72;5093606;28;20048;-66
2021/07/27 06:36:14;;;;;;;27.83;12.48;;;;;;;18.94;75.48;100929.84;5092436;28;20092;-65
2021/07/27 06:38:41;;;;;;;28.17;11.95;;;;;;;19.02;75.05;100926.13;5112051;28;20403;-66
2021/07/27 06:41:09;;;;;;;23.35;11.15;;;;;;;19.13;74.56;100931.69;5107897;28;20042;-65
2021/07/27 06:43:37;;;;;;;25.02;10.85;;;;;;;19.12;73.82;100934.63;5093873;28;20540;-65
2021/07/27 06:46:05;;;;;;;26.50;11.63;;;;;;;19.12;73.11;100938.13;5111397;28;20126;-65
2021/07/27 06:48:32;;;;;;;20.52;11.07;;;;;;;19.20;73.13;100933.56;5112106;28;20062;-65
2021/07/27 06:51:09;;;;;;;22.98;11.52;;;;;;;19.25;74.02;100931.09;5093207;28;20118;-66
2021/07/27 06:53:36;;;;;;;27.25;11.20;;;;;;;19.30;73.39;100934.81;5109938;28;20036;-66
2021/07/27 06:56:03;;;;;;;21.38;11.25;;;;;;;19.35;73.42;100932.31;5096568;28;20035;-65
2021/07/27 06:58:30;;;;;;;22.65;11.15;;;;;;;19.33;73.34;100945.16;5095225;28;20039;-65
2021/07/27 07:01:04;;;;;;;29.20;13.60;;;;;;;19.33;72.08;100942.47;5113771;28;20142;-65
2021/07/27 07:03:32;;;;;;;27.75;10.88;;;;;;;19.47;71.91;100940.59;5108469;28;20496;-65
2021/07/27 07:05:59;;;;;;;23.02;11.38;;;;;;;19.52;73.06;100934.59;5096635;28;20251;-65
2021/07/27 07:08:26;;;;;;;24.10;11.35;;;;;;;19.48;71.71;100938.72;5096483;28;20130;-65
2021/07/27 07:10:55;;;;;;;24.50;11.15;;;;;;;19.55;71.09;100943.09;5114826;28;20399;-66
2021/07/27 07:13:22;;;;;;;22.88;10.50;;;;;;;19.61;70.58;100949.50;5096224;28;20075;-66
2021/07/27 07:15:49;;;;;;;27.75;10.77;;;;;;;19.55;70.83;100947.63;5112723;28;20048;-66
2021/07/27 07:18:16;;;;;;;23.45;10.50;;;;;;;19.41;71.55;100949.50;5096676;28;20573;-66
2021/07/27 07:20:43;;;;;;;24.45;10.25;;;;;;;19.45;72.04;100952.63;5096364;28;20049;-66
2021/07/27 07:23:10;;;;;;;21.38;9.73;;;;;;;19.52;72.12;100954.25;5089356;28;20439;-66
2021/07/27 07:25:43;;;;;;;20.88;10.13;;;;;;;19.55;72.16;100950.31;5113800;28;20055;-66
2021/07/27 07:28:11;;;;;;;22.58;10.00;;;;;;;19.71;70.64;100951.75;5114072;28;20491;-66
2021/07/27 07:30:39;;;;;;;21.77;10.52;;;;;;;19.72;69.30;100948.03;5114675;28;20070;-66
2021/07/27 07:33:06;;;;;;;17.40;10.20;;;;;;;19.62;70.02;100945.75;5096768;28;20054;-66
2021/07/27 07:35:33;;;;;;;28.58;11.65;;;;;;;19.88;68.19;100952.16;5096746;28;20046;-66
2021/07/27 07:38:00;;;;;;;26.40;11.05;;;;;;;19.65;69.33;100949.91;5096470;28;20072;-66
2021/07/27 07:40:28;;;;;;;22.30;10.75;;;;;;;19.60;70.17;100955.09;5112174;28;20545;-66
2021/07/27 07:42:58;;;;;;;21.75;10.57;;;;;;;19.71;69.96;100954.44;5095011;28;20128;-66
2021/07/27 07:45:26;;;;;;;24.35;11.27;;;;;;;19.74;69.23;100954.88;5106826;28;20695;-66
2021/07/27 07:47:53;;;;;;;18.67;10.45;;;;;;;19.77;68.90;100961.69;5104592;28;20044;-66
2021/07/27 07:50:21;;;;;;;21.65;10.15;;;;;;;19.89;68.20;100951.13;5094038;28;20048;-66
2021/07/27 07:53:04;;;;;;;19.80;10.88;;;;;;;19.76;69.02;100952.00;5092155;28;20492;-66
2021/07/27 07:55:30;;;;;;;19.00;10.13;;;;;;;19.74;69.53;100937.91;5114413;28;20043;-65
2021/07/27 07:57:58;;;;;;;22.05;10.60;;;;;;;19.78;68.24;100938.31;5075503;28;20051;-65
2021/07/27 08:00:25;;;;;;;25.38;10.52;;;;;;;19.79;69.47;100935.41;5093912;28;20067;-65
2021/07/27 08:02:52;;;;;;;20.38;10.23;;;;;;;19.79;69.22;100939.97;5107442;28;20509;-66
2021/07/27 08:05:20;;;;;;;18.88;9.80;;;;;;;19.84;69.91;100932.91;5112024;28;20063;-66
2021/07/27 08:07:48;;;;;;;20.80;10.63;;;;;;;19.87;69.63;100934.38;5078786;28;20039;-66
2021/07/27 08:10:15;;;;;;;17.73;10.50;;;;;;;19.98;68.47;100938.28;5096206;28;20048;-66
2021/07/27 08:12:46;;;;;;;21.55;10.60;;;;;;;19.96;68.27;100924.22;5113376;28;20063;-66
2021/07/27 08:15:17;;;;;;;22.17;10.65;;;;;;;20.04;68.25;100921.25;5102514;28;20044;-66
2021/07/27 08:17:44;;;;;;;20.23;10.77;;;;;;;20.07;68.53;100927.06;5075457;28;20051;-66
2021/07/27 08:20:12;;;;;;;18.98;10.93;;;;;;;20.30;67.31;100923.03;5101993;28;20131;-66
2021/07/27 08:22:42;;;;;;;21.90;10.85;;;;;;;20.35;66.94;100927.78;5111606;28;20085;-66
2021/07/27 08:25:18;;;;;;;19.95;11.18;;;;;;;20.47;66.56;100932.28;5062122;28;20085;-66
2021/07/27 08:27:46;;;;;;;21.70;11.13;;;;;;;20.52;68.07;100923.56;5109795;28;20052;-66
2021/07/27 08:30:15;;;;;;;23.02;11.63;;;;;;;20.66;66.29;100925.13;5092505;28;20518;-65
2021/07/27 08:32:44;;;;;;;18.25;11.60;;;;;;;20.60;67.20;100930.56;5092753;28;20448;-66
2021/07/27 08:35:12;;;;;;;24.27;11.60;;;;;;;20.60;65.79;100915.22;5113400;28;20047;-66
2021/07/27 08:37:40;;;;;;;23.58;11.25;;;;;;;20.65;66.97;100922.69;5094285;28;20078;-66
2021/07/27 08:40:08;;;;;;;21.58;11.18;;;;;;;20.76;67.62;100913.91;5095274;28;20050;-66
2021/07/27 08:42:37;;;;;;;21.10;11.75;;;;;;;20.74;66.09;100920.53;5091777;28;20032;-66
2021/07/27 08:45:06;;;;;;;21.00;11.43;;;;;;;20.75;66.23;100917.63;5085860;28;20032;-66
2021/07/27 08:47:33;;;;;;;26.42;12.27;;;;;;;20.77;65.43;100907.44;5111896;28;20073;-65
2021/07/27 08:50:02;;;;;;;20.90;12.07;;;;;;;20.93;65.59;100908.81;5107309;28;20081;-65
2021/07/27 08:52:28;;;;;;;21.88;12.10;;;;;;;21.02;65.53;100895.88;5108997;28;20369;-65
2021/07/27 08:54:55;;;;;;;23.88;12.82;;;;;;;21.15;64.80;100905.75;5077678;28;20040;-65
2021/07/27 08:57:22;;;;;;;23.73;12.07;;;;;;;21.28;64.99;100900.22;5090407;28;20183;-65
2021/07/27 08:59:49;;;;;;;20.95;11.70;;;;;;;21.30;64.52;100906.22;5109302;28;20125;-65
2021/07/27 09:02:31;;;;;;;23.52;11.40;;;;;;;21.46;64.59;100905.69;5107860;28;20097;-66
2021/07/27 09:05:09;;;;;;;19.45;11.55;;;;;;;21.51;64.27;100902.34;5109853;27;20059;-66
2021/07/27 09:07:36;;;;;;;19.83;11.10;;;;;;;21.58;62.96;100897.69;5093656;28;20047;-66
2021/07/27 09:10:18;;;;;;;22.50;11.57;;;;;;;21.69;63.38;100901.53;5093849;28;20059;-66
2021/07/27 09:15:38;;;;;;;21.92;11.90;;;;;;;22.09;63.07;100902.97;5084277;28;20918;-65
2021/07/27 09:18:07;;;;;;;23.40;11.88;;;;;;;22.26;61.60;100905.84;5069690;28;20036;-65
2021/07/27 09:20:39;;;;;;;23.40;11.65;;;;;;;22.14;61.16;100909.31;5077644;28;20123;-64
2021/07/27 09:23:12;;;;;;;23.80;11.73;;;;;;;22.09;62.63;100903.78;5078404;28;20086;-65
2021/07/27 09:25:44;;;;;;;21.00;10.80;;;;;;;22.31;62.55;100903.34;5088897;28;20044;-65
2021/07/27 09:28:12;;;;;;;25.15;11.88;;;;;;;22.57;61.45;100892.13;5078459;28;20499;-65
2021/07/27 09:30:41;;;;;;;22.58;12.18;;;;;;;22.64;58.88;100883.94;5085745;28;20048;-67
2021/07/27 09:33:09;;;;;;;23.27;11.27;;;;;;;22.81;59.72;100882.22;5084790;28;20067;-66
2021/07/27 09:35:37;;;;;;;24.92;11.88;;;;;;;23.03;58.60;100875.44;5065816;28;20072;-65
2021/07/27 09:38:11;;;;;;;20.05;10.80;;;;;;;22.95;58.08;100888.22;5097187;28;20093;-64
2021/07/27 09:40:58;;;;;;;20.15;11.50;;;;;;;22.96;59.10;100879.06;5088950;28;20044;-65
2021/07/27 09:43:41;;;;;;;18.92;11.02;;;;;;;22.94;58.32;100873.09;5101865;28;20071;-67
2021/07/27 09:46:07;;;;;;;23.45;11.18;;;;;;;23.15;56.65;100866.28;5097048;28;20048;-64
2021/07/27 09:48:39;;;;;;;22.63;11.20;;;;;;;23.03;56.84;100876.28;5088980;28;20044;-66
2021/07/27 09:51:07;;;;;;;17.70;11.00;;;;;;;22.93;58.18;100876.84;5093116;28;20060;-64
2021/07/27 09:53:34;;;;;;;23.67;11.20;;;;;;;22.99;56.47;100881.31;5080121;28;20095;-66
2021/07/27 09:56:02;;;;;;;23.95;11.30;;;;;;;23.13;57.89;100886.53;5089212;28;20060;-64
2021/07/27 09:58:29;;;;;;;22.83;11.65;;;;;;;23.21;56.88;100877.25;5095959;28;20059;-65
2021/07/27 10:01:11;;;;;;;18.02;9.98;;;;;;;23.46;55.38;100877.81;5089925;28;20032;-65
2021/07/27 10:04:03;;;;;;;23.60;11.60;;;;;;;23.53;55.32;100877.72;5093040;28;20037;-65
2021/07/27 10:06:34;;;;;;;23.05;12.52;;;;;;;23.64;57.26;100879.56;5081099;28;20400;-65
2021/07/27 10:09:04;;;;;;;20.77;11.82;;;;;;;23.55;53.79;100881.00;5084085;28;20032;-65
2021/07/27 10:11:41;;;;;;;20.30;10.70;;;;;;;23.73;54.71;100877.34;5085434;28;20036;-64
2021/07/27 10:14:10;;;;;;;22.13;11.18;;;;;;;23.72;55.99;100883.78;5067002;28;20049;-65
2021/07/27 10:16:38;;;;;;;22.80;11.13;;;;;;;24.03;55.39;100879.03;5080643;28;20075;-65
2021/07/27 10:19:17;;;;;;;18.20;10.13;;;;;;;24.20;55.70;100881.84;5080939;28;20523;-65
2021/07/27 10:21:47;;;;;;;24.80;11.15;;;;;;;24.30;54.68;100882.00;5087333;28;20131;-65
2021/07/27 10:24:19;;;;;;;20.75;10.90;;;;;;;23.94;54.01;100868.59;5062558;28;20037;-65
2021/07/27 10:26:47;;;;;;;19.58;11.10;;;;;;;23.99;55.50;100883.31;5040438;28;20062;-65
2021/07/27 10:29:14;;;;;;;19.85;10.85;;;;;;;23.87;53.61;100873.34;5052572;28;20036;-66
2021/07/27 10:31:43;;;;;;;16.70;10.23;;;;;;;23.94;53.95;100871.31;5051667;28;20041;-65
2021/07/27 10:34:12;;;;;;;23.58;10.63;;;;;;;23.82;52.94;100870.50;5079269;28;20032;-65
2021/07/27 10:36:42;;;;;;;17.80;10.43;;;;;;;23.61;54.25;100881.94;5072691;28;20075;-66
2021/07/27 10:39:14;;;;;;;22.30;10.93;;;;;;;23.41;54.38;100887.72;5079617;28;20070;-66
2021/07/27 10:44:21;;;;;;;23.58;10.02;;;;;;;23.76;52.96;100891.22;5121013;27;20409;-64
2021/07/27 10:46:51;;;;;;;35.55;20.95;;;;;;;23.88;51.90;100888.50;5105450;28;20046;-64
2021/07/27 10:52:02;;;;;;;25.92;14.45;;;;;;;23.90;52.56;100883.69;5104997;27;20158;-64
2021/07/27 10:54:36;;;;;;;21.02;8.50;;;;;;;23.81;50.49;100895.13;5082842;28;20044;-65
2021/07/27 10:57:05;;;;;;;24.15;9.80;;;;;;;23.69;51.75;100887.00;5086068;28;20497;-66
2021/07/27 10:59:35;;;;;;;16.48;8.52;;;;;;;23.77;50.52;100890.16;5084497;28;20037;-65
2021/07/27 11:02:10;;;;;;;22.70;11.45;;;;;;;23.76;49.72;100891.22;5085111;28;20059;-64
2021/07/27 11:04:37;;;;;;;22.52;10.68;;;;;;;23.56;53.08;100888.06;5081697;28;20036;-64
2021/07/27 11:07:09;;;;;;;20.60;10.10;;;;;;;23.74;52.45;100895.25;5092900;28;20060;-64
2021/07/27 11:09:52;;;;;;;;;;;;;;;23.55;51.51;100894.53;5087293;28;20055;-62
2021/07/27 11:12:36;;;;;;;18.50;8.50;;;;;;;23.63;51.25;100893.34;5085302;28;19974;-63
2021/07/27 11:15:13;;;;;;;21.25;9.13;;;;;;;23.46;52.35;100888.66;5082110;28;20060;-63
2021/07/27 11:18:01;;;;;;;21.38;9.63;;;;;;;23.82;51.98;100899.50;5069698;28;20131;-65
2021/07/27 11:20:35;;;;;;;24.45;9.57;;;;;;;24.12;51.95;100894.72;5088053;28;20039;-65
2021/07/27 11:23:12;;;;;;;17.42;9.18;;;;;;;24.41;51.44;100893.88;5086649;28;20584;-63
2021/07/27 11:25:39;;;;;;;19.42;9.10;;;;;;;24.57;50.92;100884.19;5086399;28;20456;-62
2021/07/27 11:28:10;;;;;;;20.50;9.63;;;;;;;24.40;50.93;100887.66;5085948;28;20076;-63
2021/07/27 11:30:38;;;;;;;18.77;9.32;;;;;;;24.47;51.39;100885.59;5083783;28;20041;-64
2021/07/27 11:33:09;;;;;;;17.15;9.32;;;;;;;24.38;53.39;100878.94;5087509;28;20516;-64
2021/07/27 11:41:07;;;;;;;19.23;9.30;;;;;;;24.99;49.28;100862.91;5067547;28;20453;-63
2021/07/27 11:43:38;;;;;;;15.57;8.85;;;;;;;25.02;49.44;100865.13;5035171;28;20041;-63
2021/07/27 11:46:16;;;;;;;19.67;9.37;;;;;;;24.80;48.71;100867.78;5048739;28;20037;-63
2021/07/27 11:48:44;;;;;;;21.75;8.85;;;;;;;25.19;48.37;100861.59;5052044;28;20041;-63
2021/07/27 11:51:11;;;;;;;20.15;8.93;;;;;;;25.13;49.11;100854.44;5044337;28;20075;-64
2021/07/27 11:53:40;;;;;;;21.17;9.20;;;;;;;25.19;46.73;100862.41;5046134;28;20501;-63
2021/07/27 11:56:12;;;;;;;19.58;8.50;;;;;;;25.08;47.57;100858.72;5029727;28;20069;-63